createdAt,value
2023-05-19T00:01:52.711Z,100850.72
2023-05-19T00:04:55.879Z,100839.34
2023-05-19T00:08:01.052Z,100841.94
2023-05-19T00:11:04.098Z,100838.84
2023-05-19T00:14:09.813Z,100833.66
2023-05-19T00:17:12.860Z,100815.75
2023-05-19T00:20:15.951Z,100826.81
2023-05-19T00:23:18.701Z,100827.97
2023-05-19T00:26:25.004Z,100822.78
2023-05-19T00:29:34.979Z,100823.75
2023-05-19T00:32:37.816Z,100827.63
2023-05-19T00:35:41.071Z,100822.78
2023-05-19T00:38:43.834Z,100822.63
2023-05-19T00:41:46.589Z,100819.19
2023-05-19T00:44:49.306Z,100808.13
2023-05-19T00:47:52.365Z,100815.63
2023-05-19T00:51:04.635Z,100812.53
2023-05-19T00:54:08.375Z,100816.13
2023-05-19T00:57:12.062Z,100808.63
2023-05-19T01:00:15.268Z,100798.53
2023-05-19T01:03:20.876Z,100801.63
2023-05-19T01:06:23.909Z,100801.00
2023-05-19T01:09:27.056Z,100801.16
2023-05-19T01:12:30.253Z,100799.53
2023-05-19T01:16:07.162Z,100806.19
2023-05-19T01:19:40.264Z,100806.84
2023-05-19T01:23:01.119Z,100803.75
2023-05-19T01:26:09.757Z,100803.09
2023-05-19T01:29:41.318Z,100801.31
2023-05-19T01:32:46.513Z,100802.13
2023-05-19T01:35:50.561Z,100799.53
2023-05-19T01:38:57.813Z,100797.56
2023-05-19T01:42:01.932Z,100799.84
2023-05-19T01:45:06.837Z,100797.56
2023-05-19T01:48:11.289Z,100790.56
2023-05-19T01:51:15.207Z,100791.41
2023-05-19T01:54:18.855Z,100795.78
2023-05-19T01:57:48.378Z,100795.63
2023-05-19T02:01:07.283Z,100785.84
2023-05-19T02:04:22.911Z,100790.41
2023-05-19T02:07:35.474Z,100787.47
2023-05-19T02:10:43.815Z,100796.41
2023-05-19T02:13:51.467Z,100796.59
2023-05-19T02:16:56.132Z,100796.94
2023-05-19T02:19:59.301Z,100811.38
2023-05-19T02:23:02.252Z,100806.66
2023-05-19T02:26:05.236Z,100809.13
2023-05-19T02:29:09.097Z,100811.06
2023-05-19T02:32:12.084Z,100805.06
2023-05-19T02:35:16.241Z,100804.22
2023-05-19T02:38:19.340Z,100794.16
2023-05-19T02:41:22.377Z,100796.59
2023-05-19T02:44:25.157Z,100789.94
2023-05-19T02:47:28.010Z,100793.31
2023-05-19T02:50:31.088Z,100794.50
2023-05-19T02:53:34.077Z,100791.88
2023-05-19T02:56:36.894Z,100803.09
2023-05-19T02:59:39.774Z,100807.47
2023-05-19T03:02:44.200Z,100801.28
2023-05-19T03:05:47.862Z,100806.03
2023-05-19T03:08:51.133Z,100809.59
2023-05-19T03:11:53.886Z,100812.03
2023-05-19T03:14:56.605Z,100813.16
2023-05-19T03:17:59.379Z,100821.47
2023-05-19T03:21:02.173Z,100825.88
2023-05-19T03:24:05.201Z,100830.25
2023-05-19T03:27:09.051Z,100832.22
2023-05-19T03:30:13.210Z,100829.13
2023-05-19T03:33:30.028Z,100833.84
2023-05-19T03:36:33.227Z,100834.13
2023-05-19T03:39:37.091Z,100832.22
2023-05-19T03:42:39.984Z,100830.25
2023-05-19T03:45:43.035Z,100831.53
2023-05-19T03:49:04.549Z,100835.13
2023-05-19T03:52:26.204Z,100837.56
2023-05-19T03:55:34.667Z,100844.69
2023-05-19T03:58:39.486Z,100840.81
2023-05-19T04:01:42.306Z,100847.47
2023-05-19T04:04:45.089Z,100843.53
2023-05-19T04:07:47.958Z,100848.09
2023-05-19T04:10:50.746Z,100850.50
2023-05-19T04:13:53.482Z,100846.94
2023-05-19T04:16:56.392Z,100844.78
2023-05-19T04:19:59.136Z,100841.50
2023-05-19T04:23:01.867Z,100834.88
2023-05-19T04:26:06.907Z,100838.25
2023-05-19T04:29:10.947Z,100846.72
2023-05-19T04:32:17.809Z,100860.34
2023-05-19T04:35:21.398Z,100853.53
2023-05-19T04:38:24.906Z,100858.88
2023-05-19T04:41:27.832Z,100867.63
2023-05-19T04:44:31.531Z,100867.06
2023-05-19T04:47:37.090Z,100865.00
2023-05-19T04:50:42.207Z,100867.25
2023-05-19T04:53:45.708Z,100866.53
2023-05-19T04:56:49.937Z,100865.31
2023-05-19T04:59:53.662Z,100860.94
2023-05-19T05:02:57.793Z,100867.50
2023-05-19T05:06:02.470Z,100870.38
2023-05-19T05:09:05.303Z,100881.88
2023-05-19T05:12:09.235Z,100881.19
2023-05-19T05:15:14.565Z,100891.84
2023-05-19T05:18:17.725Z,100887.34
2023-05-19T05:21:20.930Z,100890.41
2023-05-19T05:24:24.148Z,100899.03
2023-05-19T05:27:31.850Z,100898.56
2023-05-19T05:30:35.519Z,100899.31
2023-05-19T05:33:39.650Z,100891.72
2023-05-19T05:36:42.603Z,100890.84
2023-05-19T05:39:45.879Z,100900.38
2023-05-19T05:42:49.642Z,100902.44
2023-05-19T05:45:54.949Z,100906.78
2023-05-19T05:48:58.101Z,100903.44
2023-05-19T05:52:06.155Z,100905.38
2023-05-19T05:55:18.629Z,100905.38
2023-05-19T05:58:22.380Z,100906.47
2023-05-19T06:01:25.292Z,100910.06
2023-05-19T06:04:29.651Z,100910.53
2023-05-19T06:07:32.436Z,100910.34
2023-05-19T06:10:37.037Z,100910.88
2023-05-19T06:13:43.068Z,100918.97
2023-05-19T06:16:51.987Z,100902.63
2023-05-19T06:19:54.837Z,100911.88
2023-05-19T06:22:57.782Z,100908.31
2023-05-19T06:26:02.912Z,100912.59
2023-05-19T06:29:06.388Z,100910.59
2023-05-19T06:32:09.227Z,100908.78
2023-05-19T06:35:12.278Z,100910.91
2023-05-19T06:38:15.055Z,100910.13
2023-05-19T06:41:18.081Z,100906.91
2023-05-19T06:44:23.295Z,100907.25
2023-05-19T06:47:26.360Z,100907.19
2023-05-19T06:50:29.218Z,100901.16
2023-05-19T06:53:34.038Z,100908.66
2023-05-19T06:56:39.288Z,100931.75
2023-05-19T06:59:43.779Z,100927.50
2023-05-19T07:02:47.489Z,100912.84
2023-05-19T07:05:50.812Z,100912.38
2023-05-19T07:08:54.091Z,100903.22
2023-05-19T07:11:57.560Z,100905.97
2023-05-19T07:15:00.752Z,100905.28
2023-05-19T07:18:04.932Z,100907.25
2023-05-19T07:21:07.761Z,100913.91
2023-05-19T07:24:11.030Z,100917.03
2023-05-19T07:27:13.865Z,100912.31
2023-05-19T07:30:16.675Z,100899.09
2023-05-19T07:33:19.515Z,100895.81
2023-05-19T07:36:22.350Z,100888.91
2023-05-19T07:39:28.019Z,100884.00
2023-05-19T07:42:30.866Z,100891.72
2023-05-19T07:45:34.911Z,100887.91
2023-05-19T07:48:37.817Z,100894.44
2023-05-19T07:51:42.074Z,100888.56
2023-05-19T07:54:46.032Z,100900.72
2023-05-19T07:57:50.637Z,100899.69
2023-05-19T08:00:53.777Z,100904.28
2023-05-19T08:03:56.994Z,100905.16
2023-05-19T08:06:59.966Z,100905.81
2023-05-19T08:10:03.738Z,100916.13
2023-05-19T08:13:06.580Z,100906.25
2023-05-19T08:16:09.320Z,100906.03
2023-05-19T08:19:12.221Z,100907.88
2023-05-19T08:22:14.998Z,100907.69
2023-05-19T08:25:19.900Z,100894.81
2023-05-19T08:28:22.833Z,100894.69
2023-05-19T08:31:25.591Z,100893.69
2023-05-19T08:34:28.628Z,100890.34
2023-05-19T08:37:33.362Z,100892.47
2023-05-19T08:40:41.298Z,100893.84
2023-05-19T08:43:44.138Z,100894.91
2023-05-19T08:46:50.086Z,100903.41
2023-05-19T08:49:53.504Z,100900.22
2023-05-19T08:53:04.910Z,100898.56
2023-05-19T08:56:25.104Z,100884.47
2023-05-19T08:59:28.259Z,100876.34
2023-05-19T09:02:31.538Z,100876.13
2023-05-19T09:05:34.644Z,100876.94
2023-05-19T09:08:37.763Z,100885.00
2023-05-19T09:11:40.656Z,100872.28
2023-05-19T09:14:44.165Z,100874.59
2023-05-19T09:17:50.694Z,100874.41
2023-05-19T09:21:03.070Z,100875.91
2023-05-19T09:24:08.112Z,100868.22
2023-05-19T09:27:16.434Z,100873.69
2023-05-19T09:30:19.687Z,100877.25
2023-05-19T09:33:22.708Z,100861.81
2023-05-19T09:36:25.889Z,100873.34
2023-05-19T09:39:29.668Z,100868.41
2023-05-19T09:42:38.028Z,100856.97
2023-05-19T09:45:40.896Z,100853.53
2023-05-19T09:48:44.045Z,100860.59
2023-05-19T09:51:49.155Z,100841.88
2023-05-19T09:54:54.026Z,100834.22
2023-05-19T09:57:56.823Z,100844.56
2023-05-19T10:01:00.660Z,100850.34
2023-05-19T10:04:06.001Z,100851.41
2023-05-19T10:07:11.588Z,100839.56
2023-05-19T10:10:15.848Z,100840.22
2023-05-19T10:13:19.732Z,100839.44
2023-05-19T10:16:24.748Z,100834.81
2023-05-19T10:19:29.216Z,100834.09
2023-05-19T10:22:33.829Z,100827.41
2023-05-19T10:25:37.787Z,100820.13
2023-05-19T10:28:43.537Z,100818.16
2023-05-19T10:31:48.209Z,100814.97
2023-05-19T10:35:14.573Z,100800.31
2023-05-19T10:38:26.320Z,100804.13
2023-05-19T10:41:47.540Z,100805.00
2023-05-19T10:45:17.985Z,100802.28
2023-05-19T10:48:22.239Z,100800.38
2023-05-19T10:51:32.308Z,100807.69
2023-05-19T10:54:47.403Z,100809.31
2023-05-19T10:57:58.895Z,100799.97
2023-05-19T11:01:01.901Z,100812.47
2023-05-19T11:04:12.350Z,100818.41
2023-05-19T11:07:20.015Z,100822.09
2023-05-19T11:10:25.882Z,100812.78
2023-05-19T11:13:28.878Z,100805.38
2023-05-19T11:16:35.003Z,100807.97
2023-05-19T11:19:37.762Z,100796.25
2023-05-19T11:22:40.593Z,100800.84
2023-05-19T11:25:47.516Z,100799.94
2023-05-19T11:28:52.180Z,100800.06
2023-05-19T11:31:55.795Z,100796.84
2023-05-19T11:34:58.606Z,100797.66
2023-05-19T11:38:02.186Z,100788.66
2023-05-19T11:41:05.248Z,100786.38
2023-05-19T11:44:12.262Z,100780.00
2023-05-19T11:47:15.966Z,100786.06
2023-05-19T11:50:20.359Z,100778.44
2023-05-19T11:53:23.416Z,100781.03
2023-05-19T11:56:26.258Z,100774.59
2023-05-19T11:59:37.839Z,100781.41
2023-05-19T12:02:40.805Z,100774.28
2023-05-19T12:05:47.421Z,100769.00
2023-05-19T12:08:55.468Z,100757.34
2023-05-19T12:11:58.591Z,100743.13
2023-05-19T12:15:03.816Z,100754.72
2023-05-19T12:18:06.821Z,100755.09
2023-05-19T12:21:10.036Z,100745.56
2023-05-19T12:24:13.063Z,100731.47
2023-05-19T12:27:26.545Z,100736.13
2023-05-19T12:30:30.449Z,100728.75
2023-05-19T12:33:35.733Z,100720.31
2023-05-19T12:36:38.899Z,100727.31
2023-05-19T12:39:43.392Z,100726.88
2023-05-19T12:42:46.585Z,100721.38
2023-05-19T12:45:49.817Z,100715.38
2023-05-19T12:48:52.638Z,100725.53
2023-05-19T12:51:55.412Z,100724.06
2023-05-19T12:55:08.403Z,100730.56
2023-05-19T12:58:12.433Z,100732.13
2023-05-19T13:01:18.938Z,100723.94
2023-05-19T13:04:21.860Z,100720.03
2023-05-19T13:07:24.805Z,100735.44
2023-05-19T13:10:28.557Z,100727.72
2023-05-19T13:13:31.423Z,100715.66
2023-05-19T13:16:34.201Z,100712.28
2023-05-19T13:19:37.050Z,100708.25
2023-05-19T13:22:39.878Z,100714.69
2023-05-19T13:25:43.581Z,100708.88
2023-05-19T13:28:46.312Z,100705.59
2023-05-19T13:31:49.088Z,100703.69
2023-05-19T13:34:51.930Z,100701.13
2023-05-19T13:37:54.710Z,100706.13
2023-05-19T13:40:57.488Z,100693.44
2023-05-19T13:44:01.271Z,100688.72
2023-05-19T13:47:04.173Z,100683.13
2023-05-19T13:50:07.342Z,100685.44
2023-05-19T13:53:11.587Z,100681.16
2023-05-19T13:56:14.426Z,100672.84
2023-05-19T13:59:21.671Z,100680.97
2023-05-19T14:02:24.542Z,100674.50
2023-05-19T14:05:29.050Z,100680.25
2023-05-19T14:08:32.463Z,100685.31
2023-05-19T14:11:35.442Z,100671.25
2023-05-19T14:14:38.715Z,100675.78
2023-05-19T14:17:41.707Z,100666.22
2023-05-19T14:20:44.617Z,100677.50
2023-05-19T14:23:47.419Z,100676.22
2023-05-19T14:26:50.728Z,100667.47
2023-05-19T14:29:53.515Z,100670.50
2023-05-19T14:32:56.662Z,100662.25
2023-05-19T14:36:00.480Z,100658.97
2023-05-19T14:39:03.384Z,100649.41
2023-05-19T14:42:06.144Z,100643.38
2023-05-19T14:45:09.467Z,100654.03
2023-05-19T14:48:12.623Z,100656.53
2023-05-19T14:51:15.361Z,100657.19
2023-05-19T14:54:18.124Z,100657.25
2023-05-19T14:57:20.993Z,100663.75
2023-05-19T15:00:26.229Z,100662.25
2023-05-19T15:03:28.970Z,100658.78
2023-05-19T15:06:31.843Z,100649.41
2023-05-19T15:09:34.659Z,100665.13
2023-05-19T15:12:37.480Z,100667.25
2023-05-19T15:15:40.282Z,100658.06
2023-05-19T15:18:43.199Z,100655.34
2023-05-19T15:21:46.056Z,100658.75
2023-05-19T15:24:48.994Z,100651.28
2023-05-19T15:27:51.764Z,100643.22
2023-05-19T15:30:54.597Z,100647.88
2023-05-19T15:33:57.390Z,100646.97
2023-05-19T15:37:00.139Z,100639.03
2023-05-19T15:40:03.750Z,100644.97
2023-05-19T15:43:06.480Z,100642.41
2023-05-19T15:46:09.284Z,100634.88
2023-05-19T15:49:12.659Z,100636.06
2023-05-19T15:52:15.706Z,100635.28
2023-05-19T15:55:18.680Z,100640.44
2023-05-19T15:58:21.498Z,100636.03
2023-05-19T16:01:24.256Z,100628.44
2023-05-19T16:04:27.075Z,100634.72
2023-05-19T16:07:29.820Z,100633.97
2023-05-19T16:10:32.967Z,100626.06
2023-05-19T16:13:35.950Z,100626.16
2023-05-19T16:16:38.863Z,100631.22
2023-05-19T16:19:41.758Z,100624.69
2023-05-19T16:22:44.529Z,100617.22
2023-05-19T16:25:48.112Z,100630.91
2023-05-19T16:28:50.945Z,100630.44
2023-05-19T16:31:53.803Z,100634.38
2023-05-19T16:34:56.642Z,100636.09
2023-05-19T16:37:59.376Z,100627.00
2023-05-19T16:41:03.815Z,100629.88
2023-05-19T16:44:06.586Z,100627.34
2023-05-19T16:47:09.327Z,100623.50
2023-05-19T16:50:13.124Z,100637.47
2023-05-19T16:53:15.949Z,100646.50
2023-05-19T16:56:19.378Z,100642.13
2023-05-19T16:59:22.188Z,100640.38
2023-05-19T17:02:25.106Z,100632.09
2023-05-19T17:05:28.002Z,100632.13
2023-05-19T17:08:30.829Z,100633.16
2023-05-19T17:11:33.674Z,100626.00
2023-05-19T17:14:37.010Z,100634.59
2023-05-19T17:17:39.851Z,100626.59
2023-05-19T17:20:42.750Z,100621.72
2023-05-19T17:23:45.757Z,100636.25
2023-05-19T17:26:48.517Z,100628.66
2023-05-19T17:29:51.280Z,100622.00
2023-05-19T17:32:55.047Z,100616.50
2023-05-19T17:35:57.795Z,100618.78
2023-05-19T17:39:00.728Z,100609.53
2023-05-19T17:42:04.203Z,100614.28
2023-05-19T17:45:07.706Z,100614.38
2023-05-19T17:48:10.510Z,100617.06
2023-05-19T17:51:13.315Z,100614.75
2023-05-19T17:54:16.381Z,100608.28
2023-05-19T17:57:20.157Z,100623.06
2023-05-19T18:00:23.496Z,100624.47
2023-05-19T18:03:26.707Z,100629.00
2023-05-19T18:06:31.605Z,100616.06
2023-05-19T18:09:38.440Z,100623.38
2023-05-19T18:12:41.163Z,100614.94
2023-05-19T18:15:43.922Z,100617.88
2023-05-19T18:18:50.526Z,100623.34
2023-05-19T18:21:53.422Z,100626.38
2023-05-19T18:24:57.698Z,100629.44
2023-05-19T18:28:00.536Z,100635.34
2023-05-19T18:31:05.350Z,100643.59
2023-05-19T18:34:08.161Z,100637.13
2023-05-19T18:37:11.010Z,100647.47
2023-05-19T18:40:13.827Z,100654.09
2023-05-19T18:43:16.786Z,100657.13
2023-05-19T18:46:20.723Z,100659.91
2023-05-19T18:49:25.164Z,100659.72
2023-05-19T18:52:28.774Z,100662.56
2023-05-19T18:55:31.545Z,100659.16
2023-05-19T18:58:34.383Z,100661.97
2023-05-19T19:01:37.331Z,100660.94
2023-05-19T19:04:41.330Z,100662.13
2023-05-19T19:07:44.886Z,100668.19
2023-05-19T19:10:50.556Z,100668.81
2023-05-19T19:13:55.601Z,100658.69
2023-05-19T19:16:58.419Z,100648.16
2023-05-19T19:20:01.300Z,100666.50
2023-05-19T19:23:06.726Z,100668.72
2023-05-19T19:26:09.859Z,100666.88
2023-05-19T19:29:12.602Z,100672.44
2023-05-19T19:32:15.495Z,100665.59
2023-05-19T19:35:18.297Z,100650.25
2023-05-19T19:38:21.139Z,100667.75
2023-05-19T19:41:25.161Z,100658.66
2023-05-19T19:44:27.944Z,100664.69
2023-05-19T19:47:30.895Z,100658.41
2023-05-19T19:50:34.837Z,100666.28
2023-05-19T19:53:38.070Z,100646.69
2023-05-19T19:56:40.899Z,100663.13
2023-05-19T19:59:43.838Z,100659.72
2023-05-19T20:05:56.717Z,100658.72
2023-05-19T20:09:00.025Z,100659.16
2023-05-19T20:12:02.762Z,100672.88
2023-05-19T20:15:06.393Z,100661.50
2023-05-19T20:18:09.429Z,100668.38
2023-05-19T20:21:12.224Z,100662.25
2023-05-19T20:24:14.993Z,100664.84
2023-05-19T20:27:17.750Z,100668.69
2023-05-19T20:30:20.866Z,100642.94
2023-05-19T20:33:23.601Z,100658.53
2023-05-19T20:36:26.788Z,100655.66
2023-05-19T20:39:31.120Z,100651.72
2023-05-19T20:42:34.171Z,100649.25
2023-05-19T20:45:37.154Z,100648.81
2023-05-19T20:48:40.170Z,100648.41
2023-05-19T20:51:43.056Z,100648.19
2023-05-19T20:54:46.571Z,100649.78
2023-05-19T20:57:49.319Z,100653.41
2023-05-19T21:00:57.782Z,100659.22
2023-05-19T21:04:01.265Z,100656.41
2023-05-19T21:07:04.567Z,100649.75
2023-05-19T21:10:07.998Z,100648.09
2023-05-19T21:13:10.826Z,100649.88
2023-05-19T21:16:13.570Z,100647.66
2023-05-19T21:19:16.603Z,100632.16
2023-05-19T21:22:19.406Z,100638.56
2023-05-19T21:25:22.476Z,100634.91
2023-05-19T21:28:25.250Z,100642.03
2023-05-19T21:31:28.007Z,100648.00
2023-05-19T21:34:30.864Z,100642.97
2023-05-19T21:37:35.745Z,100641.97
2023-05-19T21:40:38.467Z,100648.81
2023-05-19T21:43:42.180Z,100648.47
2023-05-19T21:46:45.085Z,100649.00
2023-05-19T21:49:47.902Z,100649.78
2023-05-19T21:52:51.061Z,100649.59
2023-05-19T21:55:53.957Z,100642.25
2023-05-19T21:58:56.749Z,100646.06
2023-05-19T22:01:59.539Z,100653.72
2023-05-19T22:05:02.332Z,100652.28
2023-05-19T22:08:05.319Z,100652.81
2023-05-19T22:11:09.178Z,100648.44
2023-05-19T22:14:11.953Z,100646.44
2023-05-19T22:17:14.719Z,100651.28
2023-05-19T22:20:17.702Z,100642.06
2023-05-19T22:23:21.025Z,100643.41
2023-05-19T22:26:23.748Z,100631.81
2023-05-19T22:29:26.536Z,100617.59
2023-05-19T22:32:30.558Z,100628.13
2023-05-19T22:35:33.390Z,100633.44
2023-05-19T22:38:36.496Z,100623.91
2023-05-19T22:41:39.549Z,100625.97
2023-05-19T22:44:43.570Z,100623.97
2023-05-19T22:47:48.143Z,100626.84
2023-05-19T22:50:51.108Z,100613.25
2023-05-19T22:53:54.299Z,100610.66
2023-05-19T22:56:57.132Z,100618.81
2023-05-19T22:59:59.951Z,100610.66
2023-05-19T23:03:02.718Z,100610.53
2023-05-19T23:06:05.460Z,100614.53
2023-05-19T23:09:08.274Z,100611.22
2023-05-19T23:12:11.035Z,100606.97
2023-05-19T23:15:13.776Z,100620.94
2023-05-19T23:18:16.510Z,100617.31
2023-05-19T23:21:19.510Z,100613.13
2023-05-19T23:24:22.332Z,100615.91
2023-05-19T23:27:25.100Z,100614.72
2023-05-19T23:30:30.453Z,100608.25
2023-05-19T23:33:33.270Z,100603.31
2023-05-19T23:36:36.732Z,100602.50
2023-05-19T23:39:39.641Z,100597.72
2023-05-19T23:42:44.521Z,100595.47
2023-05-19T23:45:47.293Z,100601.47
2023-05-19T23:48:50.105Z,100599.59
2023-05-19T23:51:52.929Z,100586.63
2023-05-19T23:54:55.745Z,100600.22
2023-05-19T23:57:58.569Z,100604.34
